sensor_id;sensor_type;location;lat;lon;timestamp;pressure;altitude;pressure_sealevel;temperature;humidity
71966;BME280;59836;52.132;5.442;2023-01-23T00:00:44;103671.03;;;1.85;92.96
71966;BME280;59836;52.132;5.442;2023-01-23T00:03:11;103671.03;;;1.85;93.14
71966;BME280;59836;52.132;5.442;2023-01-23T00:05:38;103678.91;;;1.86;93.07
71966;BME280;59836;52.132;5.442;2023-01-23T00:08:04;103674.56;;;1.85;92.88
71966;BME280;59836;52.132;5.442;2023-01-23T00:10:31;103679.75;;;1.87;92.97
71966;BME280;59836;52.132;5.442;2023-01-23T00:12:57;103679.75;;;1.87;92.98
71966;BME280;59836;52.132;5.442;2023-01-23T00:15:23;103681.44;;;1.88;92.87
71966;BME280;59836;52.132;5.442;2023-01-23T00:17:50;103687.78;;;1.87;93.04
71966;BME280;59836;52.132;5.442;2023-01-23T00:20:18;103679.75;;;1.87;92.98
71966;BME280;59836;52.132;5.442;2023-01-23T00:22:45;103674.56;;;1.85;92.99
71966;BME280;59836;52.132;5.442;2023-01-23T00:25:11;103678.34;;;1.83;93.08
71966;BME280;59836;52.132;5.442;2023-01-23T00:27:37;103677.34;;;1.84;93.25
71966;BME280;59836;52.132;5.442;2023-01-23T00:30:04;103681.00;;;1.83;93.25
71966;BME280;59836;52.132;5.442;2023-01-23T00:32:31;103682.72;;;1.84;93.21
71966;BME280;59836;52.132;5.442;2023-01-23T00:34:57;103676.66;;;1.82;93.15
71966;BME280;59836;52.132;5.442;2023-01-23T00:37:23;103681.72;;;1.85;93.63
71966;BME280;59836;52.132;5.442;2023-01-23T00:39:50;103681.72;;;1.85;93.48
71966;BME280;59836;52.132;5.442;2023-01-23T00:42:16;103681.72;;;1.85;93.39
71966;BME280;59836;52.132;5.442;2023-01-23T00:44:43;103684.41;;;1.85;93.63
71966;BME280;59836;52.132;5.442;2023-01-23T00:47:09;103679.19;;;1.83;93.50
71966;BME280;59836;52.132;5.442;2023-01-23T00:49:36;103687.06;;;1.85;93.70
71966;BME280;59836;52.132;5.442;2023-01-23T00:52:02;103672.72;;;1.86;93.78
71966;BME280;59836;52.132;5.442;2023-01-23T00:54:28;103667.50;;;1.84;93.78
71966;BME280;59836;52.132;5.442;2023-01-23T00:56:55;103671.88;;;1.85;93.92
71966;BME280;59836;52.132;5.442;2023-01-23T00:59:22;103679.03;;;1.85;93.85
71966;BME280;59836;52.132;5.442;2023-01-23T01:01:49;103672.72;;;1.86;93.73
71966;BME280;59836;52.132;5.442;2023-01-23T01:04:16;103667.50;;;1.84;93.62
71966;BME280;59836;52.132;5.442;2023-01-23T01:06:42;103670.19;;;1.84;93.72
71966;BME280;59836;52.132;5.442;2023-01-23T01:09:08;103662.28;;;1.83;93.85
71966;BME280;59836;52.132;5.442;2023-01-23T01:11:35;103664.13;;;1.82;93.95
71966;BME280;59836;52.132;5.442;2023-01-23T01:14:01;103653.44;;;1.82;93.99
71966;BME280;59836;52.132;5.442;2023-01-23T01:16:28;103658.63;;;1.84;93.89
71966;BME280;59836;52.132;5.442;2023-01-23T01:18:54;103656.94;;;1.83;93.90
71966;BME280;59836;52.132;5.442;2023-01-23T01:21:21;103654.41;;;1.81;93.93
71966;BME280;59836;52.132;5.442;2023-01-23T01:23:48;103655.25;;;1.82;93.77
71966;BME280;59836;52.132;5.442;2023-01-23T01:26:14;103657.91;;;1.82;93.99
71966;BME280;59836;52.132;5.442;2023-01-23T01:28:40;103658.91;;;1.81;93.73
71966;BME280;59836;52.132;5.442;2023-01-23T01:31:12;103663.28;;;1.82;93.82
71966;BME280;59836;52.132;5.442;2023-01-23T01:33:41;103667.91;;;1.80;94.31
71966;BME280;59836;52.132;5.442;2023-01-23T01:36:13;103671.56;;;1.79;94.35
71966;BME280;59836;52.132;5.442;2023-01-23T01:38:40;103673.25;;;1.80;94.14
71966;BME280;59836;52.132;5.442;2023-01-23T01:41:07;103670.75;;;1.78;94.15
71966;BME280;59836;52.132;5.442;2023-01-23T01:43:34;103672.72;;;1.76;94.26
71966;BME280;59836;52.132;5.442;2023-01-23T01:49:06;103669.06;;;1.77;94.28
71966;BME280;59836;52.132;5.442;2023-01-23T01:51:42;103669.88;;;1.77;94.53
71966;BME280;59836;52.132;5.442;2023-01-23T02:02:13;103669.88;;;1.77;94.61
71966;BME280;59836;52.132;5.442;2023-01-23T02:04:44;103669.88;;;1.77;94.58
71966;BME280;59836;52.132;5.442;2023-01-23T02:07:40;103683.97;;;1.80;94.78
71966;BME280;59836;52.132;5.442;2023-01-23T02:10:10;103670.59;;;1.80;94.58
71966;BME280;59836;52.132;5.442;2023-01-23T02:12:37;103674.13;;;1.80;94.44
71966;BME280;59836;52.132;5.442;2023-01-23T02:15:06;103675.81;;;1.81;94.44
71966;BME280;59836;52.132;5.442;2023-01-23T02:17:34;103682.00;;;1.82;94.57
71966;BME280;59836;52.132;5.442;2023-01-23T02:20:10;103681.16;;;1.81;94.77
71966;BME280;59836;52.132;5.442;2023-01-23T02:22:45;103679.47;;;1.80;94.66
71966;BME280;59836;52.132;5.442;2023-01-23T02:25:16;103685.66;;;1.81;94.57
71966;BME280;59836;52.132;5.442;2023-01-23T02:27:43;103682.00;;;1.82;94.77
71966;BME280;59836;52.132;5.442;2023-01-23T02:30:10;103691.00;;;1.81;94.72
71966;BME280;59836;52.132;5.442;2023-01-23T02:32:37;103687.34;;;1.82;94.50
71966;BME280;59836;52.132;5.442;2023-01-23T02:35:19;103682.28;;;1.79;94.54
71966;BME280;59836;52.132;5.442;2023-01-23T02:37:53;103692.00;;;1.80;94.83
71966;BME280;59836;52.132;5.442;2023-01-23T02:40:30;103694.69;;;1.80;94.91
71966;BME280;59836;52.132;5.442;2023-01-23T02:42:57;103690.03;;;1.82;94.73
71966;BME280;59836;52.132;5.442;2023-01-23T02:45:24;103698.06;;;1.82;94.65
71966;BME280;59836;52.132;5.442;2023-01-23T02:47:51;103695.38;;;1.82;94.95
71966;BME280;59836;52.132;5.442;2023-01-23T02:50:17;103692.72;;;1.82;94.73
71966;BME280;59836;52.132;5.442;2023-01-23T02:52:44;103703.13;;;1.85;94.50
71966;BME280;59836;52.132;5.442;2023-01-23T02:55:12;103717.50;;;1.84;94.83
71966;BME280;59836;52.132;5.442;2023-01-23T02:57:38;103708.47;;;1.85;94.84
71966;BME280;59836;52.132;5.442;2023-01-23T03:00:05;103704.13;;;1.84;94.65
71966;BME280;59836;52.132;5.442;2023-01-23T03:02:42;103713.72;;;1.86;94.93
71966;BME280;59836;52.132;5.442;2023-01-23T03:05:09;103707.50;;;1.86;95.04
71966;BME280;59836;52.132;5.442;2023-01-23T03:07:35;103708.47;;;1.85;94.90
71966;BME280;59836;52.132;5.442;2023-01-23T03:10:03;103710.31;;;1.84;94.99
71966;BME280;59836;52.132;5.442;2023-01-23T03:12:29;103708.47;;;1.85;94.83
71966;BME280;59836;52.132;5.442;2023-01-23T03:14:56;103704.00;;;1.85;94.80
71966;BME280;59836;52.132;5.442;2023-01-23T03:17:24;103703.00;;;1.86;94.60
71966;BME280;59836;52.132;5.442;2023-01-23T03:19:50;103707.38;;;1.87;94.84
71966;BME280;59836;52.132;5.442;2023-01-23T03:22:17;103704.81;;;1.86;94.86
71966;BME280;59836;52.132;5.442;2023-01-23T03:24:43;103705.97;;;1.83;94.68
71966;BME280;59836;52.132;5.442;2023-01-23T03:27:10;103703.13;;;1.85;94.67
71966;BME280;59836;52.132;5.442;2023-01-23T03:29:36;103703.13;;;1.85;94.88
71966;BME280;59836;52.132;5.442;2023-01-23T03:32:21;103703.13;;;1.85;94.97
71966;BME280;59836;52.132;5.442;2023-01-23T03:34:50;103710.19;;;1.86;94.80
71966;BME280;59836;52.132;5.442;2023-01-23T03:37:17;103717.22;;;1.87;94.74
71966;BME280;59836;52.132;5.442;2023-01-23T03:39:45;103704.81;;;1.86;94.98
71966;BME280;59836;52.132;5.442;2023-01-23T03:42:34;103713.56;;;1.88;95.09
71966;BME280;59836;52.132;5.442;2023-01-23T03:45:01;103709.19;;;1.87;95.04
71966;BME280;59836;52.132;5.442;2023-01-23T03:47:27;103708.19;;;1.88;95.00
71966;BME280;59836;52.132;5.442;2023-01-23T03:49:54;103708.19;;;1.88;94.87
71966;BME280;59836;52.132;5.442;2023-01-23T03:52:20;103703.72;;;1.88;95.14
71966;BME280;59836;52.132;5.442;2023-01-23T03:54:47;103714.41;;;1.88;94.75
71966;BME280;59836;52.132;5.442;2023-01-23T03:57:13;103713.56;;;1.88;94.89
71966;BME280;59836;52.132;5.442;2023-01-23T03:59:40;103708.19;;;1.88;94.98
71966;BME280;59836;52.132;5.442;2023-01-23T04:02:06;103719.78;;;1.88;95.12
71966;BME280;59836;52.132;5.442;2023-01-23T04:04:33;103706.38;;;1.88;95.14
71966;BME280;59836;52.132;5.442;2023-01-23T04:07:01;103707.38;;;1.87;95.33
71966;BME280;59836;52.132;5.442;2023-01-23T04:09:27;103713.44;;;1.89;94.95
71966;BME280;59836;52.132;5.442;2023-01-23T04:11:54;103719.63;;;1.90;95.14
71966;BME280;59836;52.132;5.442;2023-01-23T04:14:22;103713.56;;;1.88;94.90
71966;BME280;59836;52.132;5.442;2023-01-23T04:16:49;103712.56;;;1.89;94.87
71966;BME280;59836;52.132;5.442;2023-01-23T04:19:15;103716.09;;;1.89;95.33
71966;BME280;59836;52.132;5.442;2023-01-23T04:21:45;103723.16;;;1.90;94.96
71966;BME280;59836;52.132;5.442;2023-01-23T04:24:12;103719.63;;;1.90;94.88
71966;BME280;59836;52.132;5.442;2023-01-23T04:26:38;103726.81;;;1.89;94.80
71966;BME280;59836;52.132;5.442;2023-01-23T04:29:05;103732.16;;;1.89;95.17
71966;BME280;59836;52.132;5.442;2023-01-23T04:31:33;103725.69;;;1.92;94.90
71966;BME280;59836;52.132;5.442;2023-01-23T04:33:59;103732.72;;;1.93;95.01
71966;BME280;59836;52.132;5.442;2023-01-23T04:36:26;103739.22;;;1.90;94.77
71966;BME280;59836;52.132;5.442;2023-01-23T04:38:52;103731.03;;;1.92;95.08
71966;BME280;59836;52.132;5.442;2023-01-23T04:41:24;103733.69;;;1.92;95.32
71966;BME280;59836;52.132;5.442;2023-01-23T04:43:51;103727.38;;;1.93;95.10
71966;BME280;59836;52.132;5.442;2023-01-23T04:46:17;103727.38;;;1.93;95.36
71966;BME280;59836;52.132;5.442;2023-01-23T04:48:44;103722.00;;;1.93;94.97
71966;BME280;59836;52.132;5.442;2023-01-23T04:51:13;103736.38;;;1.92;95.21
71966;BME280;59836;52.132;5.442;2023-01-23T04:53:40;103729.22;;;1.92;95.32
71966;BME280;59836;52.132;5.442;2023-01-23T04:56:06;103735.28;;;1.95;95.27
71966;BME280;59836;52.132;5.442;2023-01-23T04:58:33;103738.78;;;1.95;95.06
71966;BME280;59836;52.132;5.442;2023-01-23T05:01:03;103728.78;;;1.97;95.43
71966;BME280;59836;52.132;5.442;2023-01-23T05:03:30;103726.09;;;1.97;95.31
71966;BME280;59836;52.132;5.442;2023-01-23T05:05:57;103735.00;;;1.98;95.12
71966;BME280;59836;52.132;5.442;2023-01-23T05:08:24;103729.91;;;1.95;95.19
71966;BME280;59836;52.132;5.442;2023-01-23T05:10:50;103743.16;;;1.96;94.87
71966;BME280;59836;52.132;5.442;2023-01-23T05:13:17;103741.47;;;1.95;95.02
71966;BME280;59836;52.132;5.442;2023-01-23T05:15:43;103733.31;;;1.97;95.07
71966;BME280;59836;52.132;5.442;2023-01-23T05:18:09;103745.81;;;1.96;95.12
71966;BME280;59836;52.132;5.442;2023-01-23T05:20:36;103753.03;;;1.96;95.20
71966;BME280;59836;52.132;5.442;2023-01-23T05:23:02;103747.50;;;1.97;94.89
71966;BME280;59836;52.132;5.442;2023-01-23T05:25:28;103744.84;;;1.97;95.15
71966;BME280;59836;52.132;5.442;2023-01-23T05:27:55;103748.50;;;1.96;95.21
71966;BME280;59836;52.132;5.442;2023-01-23T05:30:22;103753.84;;;1.96;95.22
71966;BME280;59836;52.132;5.442;2023-01-23T05:32:48;103749.63;;;1.94;94.97
71966;BME280;59836;52.132;5.442;2023-01-23T05:35:15;103755.69;;;1.96;95.49
71966;BME280;59836;52.132;5.442;2023-01-23T05:37:42;103753.16;;;1.94;95.10
71966;BME280;59836;52.132;5.442;2023-01-23T05:40:10;103754.84;;;1.95;94.81
71966;BME280;59836;52.132;5.442;2023-01-23T05:42:38;103757.50;;;1.95;95.03
71966;BME280;59836;52.132;5.442;2023-01-23T05:45:05;103762.03;;;1.95;95.49
71966;BME280;59836;52.132;5.442;2023-01-23T05:47:31;103753.84;;;1.96;95.21
71966;BME280;59836;52.132;5.442;2023-01-23T05:49:58;103760.91;;;1.97;95.22
71966;BME280;59836;52.132;5.442;2023-01-23T05:52:24;103758.22;;;1.97;95.01
71966;BME280;59836;52.132;5.442;2023-01-23T05:54:50;103757.94;;;2.00;95.21
71966;BME280;59836;52.132;5.442;2023-01-23T05:57:17;103745.53;;;1.99;94.88
71966;BME280;59836;52.132;5.442;2023-01-23T05:59:44;103749.91;;;2.00;95.02
71966;BME280;59836;52.132;5.442;2023-01-23T06:02:10;103756.97;;;2.01;94.96
71966;BME280;59836;52.132;5.442;2023-01-23T06:04:37;103754.44;;;2.00;95.21
71966;BME280;59836;52.132;5.442;2023-01-23T06:07:03;103758.94;;;1.99;94.94
71966;BME280;59836;52.132;5.442;2023-01-23T06:09:30;103756.41;;;1.98;95.13
71966;BME280;59836;52.132;5.442;2023-01-23T06:11:56;103758.94;;;1.99;95.01
71966;BME280;59836;52.132;5.442;2023-01-23T06:14:23;103754.72;;;1.97;95.24
71966;BME280;59836;52.132;5.442;2023-01-23T06:16:49;103752.16;;;1.95;95.27
71966;BME280;59836;52.132;5.442;2023-01-23T06:19:16;103750.34;;;1.96;95.42
71966;BME280;59836;52.132;5.442;2023-01-23T06:21:42;103757.50;;;1.95;95.17
71966;BME280;59836;52.132;5.442;2023-01-23T06:24:08;103755.69;;;1.96;95.04
71966;BME280;59836;52.132;5.442;2023-01-23T06:26:35;103762.88;;;1.95;95.23
71966;BME280;59836;52.132;5.442;2023-01-23T06:29:01;103766.25;;;1.97;95.31
71966;BME280;59836;52.132;5.442;2023-01-23T06:31:27;103777.94;;;1.96;95.38
71966;BME280;59836;52.132;5.442;2023-01-23T06:33:58;103775.25;;;1.96;94.74
71966;BME280;59836;52.132;5.442;2023-01-23T06:36:25;103778.09;;;1.95;95.47
71966;BME280;59836;52.132;5.442;2023-01-23T06:38:52;103785.16;;;1.96;95.51
71966;BME280;59836;52.132;5.442;2023-01-23T06:41:18;103788.53;;;1.98;95.32
71966;BME280;59836;52.132;5.442;2023-01-23T06:43:45;103787.66;;;1.97;95.46
71966;BME280;59836;52.132;5.442;2023-01-23T06:46:11;103794.72;;;1.98;95.58
71966;BME280;59836;52.132;5.442;2023-01-23T06:48:38;103807.09;;;1.99;95.58
71966;BME280;59836;52.132;5.442;2023-01-23T06:51:04;103798.97;;;2.01;95.36
71966;BME280;59836;52.132;5.442;2023-01-23T06:53:31;103807.81;;;2.01;95.50
71966;BME280;59836;52.132;5.442;2023-01-23T06:56:00;103810.50;;;2.01;95.26
71966;BME280;59836;52.132;5.442;2023-01-23T06:58:27;103803.19;;;2.03;95.54
71966;BME280;59836;52.132;5.442;2023-01-23T07:00:54;103800.50;;;2.03;95.40
71966;BME280;59836;52.132;5.442;2023-01-23T07:03:20;103797.81;;;2.03;95.19
71966;BME280;59836;52.132;5.442;2023-01-23T07:05:47;103801.19;;;2.05;95.30
71966;BME280;59836;52.132;5.442;2023-01-23T07:08:13;103795.84;;;2.05;95.11
71966;BME280;59836;52.132;5.442;2023-01-23T07:10:39;103793.19;;;2.05;95.09
71966;BME280;59836;52.132;5.442;2023-01-23T07:13:07;103793.06;;;2.07;95.22
71966;BME280;59836;52.132;5.442;2023-01-23T07:15:35;103790.50;;;2.05;94.88
71966;BME280;59836;52.132;5.442;2023-01-23T07:18:02;103792.19;;;2.06;94.94
71966;BME280;59836;52.132;5.442;2023-01-23T07:20:30;103787.81;;;2.05;94.89
71966;BME280;59836;52.132;5.442;2023-01-23T07:23:00;103791.34;;;2.06;95.21
71966;BME280;59836;52.132;5.442;2023-01-23T07:25:29;103784.88;;;2.09;95.05
71966;BME280;59836;52.132;5.442;2023-01-23T07:28:04;103791.09;;;2.09;94.89
71966;BME280;59836;52.132;5.442;2023-01-23T07:30:32;103800.94;;;2.09;95.05
71966;BME280;59836;52.132;5.442;2023-01-23T07:32:59;103791.91;;;2.10;94.81
71966;BME280;59836;52.132;5.442;2023-01-23T07:35:25;103803.75;;;2.07;94.85
71966;BME280;59836;52.132;5.442;2023-01-23T07:37:52;103802.78;;;2.08;94.81
71966;BME280;59836;52.132;5.442;2023-01-23T07:40:18;103798.13;;;2.10;94.98
71966;BME280;59836;52.132;5.442;2023-01-23T07:42:45;103798.13;;;2.10;94.72
71966;BME280;59836;52.132;5.442;2023-01-23T07:45:12;103799.81;;;2.11;94.97
71966;BME280;59836;52.132;5.442;2023-01-23T07:47:39;103802.63;;;2.10;94.76
71966;BME280;59836;52.132;5.442;2023-01-23T07:50:10;103804.59;;;2.08;94.65
71966;BME280;59836;52.132;5.442;2023-01-23T07:52:38;103822.34;;;2.09;94.65
71966;BME280;59836;52.132;5.442;2023-01-23T07:55:05;103832.94;;;2.10;94.95
71966;BME280;59836;52.132;5.442;2023-01-23T07:57:31;103846.44;;;2.09;95.14
71966;BME280;59836;52.132;5.442;2023-01-23T07:59:59;103844.75;;;2.08;94.77
71966;BME280;59836;52.132;5.442;2023-01-23T08:02:27;103849.13;;;2.09;95.29
71966;BME280;59836;52.132;5.442;2023-01-23T08:04:54;103856.44;;;2.06;95.04
71966;BME280;59836;52.132;5.442;2023-01-23T08:07:24;103848.28;;;2.08;94.77
71966;BME280;59836;52.132;5.442;2023-01-23T08:09:51;103843.75;;;2.09;95.08
71966;BME280;59836;52.132;5.442;2023-01-23T08:12:17;103847.16;;;2.11;94.97
71966;BME280;59836;52.132;5.442;2023-01-23T08:14:54;103851.38;;;2.13;94.72
71966;BME280;59836;52.132;5.442;2023-01-23T08:17:25;103849.56;;;2.14;95.19
71966;BME280;59836;52.132;5.442;2023-01-23T08:20:08;103855.88;;;2.13;94.92
71966;BME280;59836;52.132;5.442;2023-01-23T08:22:35;103856.72;;;2.13;94.91
71966;BME280;59836;52.132;5.442;2023-01-23T08:28:11;103859.00;;;2.18;95.11
71966;BME280;59836;52.132;5.442;2023-01-23T08:30:37;103868.56;;;2.20;95.40
71966;BME280;59836;52.132;5.442;2023-01-23T08:33:04;103871.13;;;2.22;95.20
71966;BME280;59836;52.132;5.442;2023-01-23T08:35:38;103863.81;;;2.24;95.03
71966;BME280;59836;52.132;5.442;2023-01-23T08:38:04;103860.16;;;2.25;95.04
71966;BME280;59836;52.132;5.442;2023-01-23T08:40:33;103860.69;;;2.29;94.94
71966;BME280;59836;52.132;5.442;2023-01-23T08:42:59;103857.03;;;2.30;94.90
71966;BME280;59836;52.132;5.442;2023-01-23T08:45:26;103860.56;;;2.30;94.91
71966;BME280;59836;52.132;5.442;2023-01-23T08:47:52;103861.28;;;2.32;94.74
71966;BME280;59836;52.132;5.442;2023-01-23T08:50:19;103853.97;;;2.34;94.79
71966;BME280;59836;52.132;5.442;2023-01-23T08:52:45;103862.69;;;2.36;94.62
71966;BME280;59836;52.132;5.442;2023-01-23T08:55:12;103859.03;;;2.38;94.42
71966;BME280;59836;52.132;5.442;2023-01-23T08:57:38;103874.13;;;2.39;94.28
71966;BME280;59836;52.132;5.442;2023-01-23T09:00:05;103868.75;;;2.39;94.53
71966;BME280;59836;52.132;5.442;2023-01-23T09:02:32;103879.19;;;2.42;94.50
71966;BME280;59836;52.132;5.442;2023-01-23T09:05:10;103877.06;;;2.45;94.47
71966;BME280;59836;52.132;5.442;2023-01-23T09:07:46;103888.66;;;2.46;94.30
71966;BME280;59836;52.132;5.442;2023-01-23T09:10:35;103889.34;;;2.48;94.32
71966;BME280;59836;52.132;5.442;2023-01-23T09:13:02;103890.06;;;2.50;93.90
71966;BME280;59836;52.132;5.442;2023-01-23T09:15:29;103886.41;;;2.51;94.61
71966;BME280;59836;52.132;5.442;2023-01-23T09:17:55;103882.75;;;2.52;94.10
71966;BME280;59836;52.132;5.442;2023-01-23T09:20:34;103892.31;;;2.55;94.33
71966;BME280;59836;52.132;5.442;2023-01-23T09:23:04;103891.22;;;2.57;94.17
71966;BME280;59836;52.132;5.442;2023-01-23T09:25:36;103893.59;;;2.60;94.13
71966;BME280;59836;52.132;5.442;2023-01-23T09:28:21;103884.44;;;2.63;93.76
71966;BME280;59836;52.132;5.442;2023-01-23T09:30:49;103891.47;;;2.64;93.68
71966;BME280;59836;52.132;5.442;2023-01-23T09:33:24;103884.97;;;2.66;93.74
71966;BME280;59836;52.132;5.442;2023-01-23T09:35:52;103888.34;;;2.69;93.93
71966;BME280;59836;52.132;5.442;2023-01-23T09:38:22;103885.41;;;2.72;93.30
71966;BME280;59836;52.132;5.442;2023-01-23T09:41:18;103888.94;;;2.72;93.65
71966;BME280;59836;52.132;5.442;2023-01-23T09:43:54;103902.19;;;2.74;93.76
71966;BME280;59836;52.132;5.442;2023-01-23T09:46:36;103895.72;;;2.76;93.61
71966;BME280;59836;52.132;5.442;2023-01-23T09:49:12;103904.47;;;2.78;93.39
71966;BME280;59836;52.132;5.442;2023-01-23T09:55:38;103894.00;;;2.85;93.44
71966;BME280;59836;52.132;5.442;2023-01-23T09:58:42;103897.53;;;2.86;93.21
71966;BME280;59836;52.132;5.442;2023-01-23T10:01:28;103904.59;;;2.87;92.82
71966;BME280;59836;52.132;5.442;2023-01-23T10:03:59;103907.72;;;2.92;93.13
71966;BME280;59836;52.132;5.442;2023-01-23T10:07:21;103906.72;;;2.93;92.80
71966;BME280;59836;52.132;5.442;2023-01-23T10:13:07;103913.91;;;2.92;92.61
71966;BME280;59836;52.132;5.442;2023-01-23T10:19:01;103899.09;;;2.98;92.35
71966;BME280;59836;52.132;5.442;2023-01-23T10:21:44;103892.59;;;3.01;92.56
71966;BME280;59836;52.132;5.442;2023-01-23T10:24:46;103895.69;;;3.06;92.50
71966;BME280;59836;52.132;5.442;2023-01-23T10:27:38;103890.75;;;3.11;92.77
71966;BME280;59836;52.132;5.442;2023-01-23T10:32:47;103887.19;;;3.20;92.50
71966;BME280;59836;52.132;5.442;2023-01-23T10:35:23;103885.22;;;3.22;92.29
71966;BME280;59836;52.132;5.442;2023-01-23T10:41:25;103875.59;;;3.30;92.01
71966;BME280;59836;52.132;5.442;2023-01-23T10:43:53;103878.13;;;3.31;91.80
71966;BME280;59836;52.132;5.442;2023-01-23T10:46:26;103880.94;;;3.39;91.76
71966;BME280;59836;52.132;5.442;2023-01-23T10:48:54;103876.13;;;3.43;91.31
71966;BME280;59836;52.132;5.442;2023-01-23T10:54:11;103888.84;;;3.41;91.26
71966;BME280;59836;52.132;5.442;2023-01-23T11:02:19;103887.44;;;3.37;91.02
71966;BME280;59836;52.132;5.442;2023-01-23T11:04:51;103886.16;;;3.41;91.18
71966;BME280;59836;52.132;5.442;2023-01-23T11:07:23;103883.19;;;3.44;90.95
71966;BME280;59836;52.132;5.442;2023-01-23T11:12:46;103884.88;;;3.45;90.92
71966;BME280;59836;52.132;5.442;2023-01-23T11:15:30;103892.94;;;3.45;91.24
71966;BME280;59836;52.132;5.442;2023-01-23T11:18:25;103893.94;;;3.44;90.85
71966;BME280;59836;52.132;5.442;2023-01-23T11:20:59;103896.44;;;3.46;90.74
71966;BME280;59836;52.132;5.442;2023-01-23T11:23:28;103886.56;;;3.46;90.99
71966;BME280;59836;52.132;5.442;2023-01-23T11:25:55;103877.53;;;3.47;90.63
71966;BME280;59836;52.132;5.442;2023-01-23T11:28:31;103888.97;;;3.49;90.90
71966;BME280;59836;52.132;5.442;2023-01-23T11:31:16;103885.00;;;3.53;90.78
71966;BME280;59836;52.132;5.442;2023-01-23T11:33:55;103893.06;;;3.53;90.98
71966;BME280;59836;52.132;5.442;2023-01-23T11:42:31;103898.81;;;3.59;90.33
71966;BME280;59836;52.132;5.442;2023-01-23T11:44:59;103894.28;;;3.59;90.34
71966;BME280;59836;52.132;5.442;2023-01-23T11:50:38;103897.53;;;3.63;90.22
71966;BME280;59836;52.132;5.442;2023-01-23T11:53:36;103899.94;;;3.66;90.14
71966;BME280;59836;52.132;5.442;2023-01-23T12:05:12;103886.59;;;3.74;89.86
71966;BME280;59836;52.132;5.442;2023-01-23T12:10:31;103885.16;;;3.80;89.85
71966;BME280;59836;52.132;5.442;2023-01-23T12:16:23;103874.25;;;3.81;89.51
71966;BME280;59836;52.132;5.442;2023-01-23T12:19:32;103880.34;;;3.83;89.77
71966;BME280;59836;52.132;5.442;2023-01-23T12:25:22;103877.34;;;3.87;89.30
71966;BME280;59836;52.132;5.442;2023-01-23T12:28:00;103878.06;;;3.89;89.30
71966;BME280;59836;52.132;5.442;2023-01-23T12:31:00;103877.06;;;3.90;89.75
71966;BME280;59836;52.132;5.442;2023-01-23T12:39:41;103876.75;;;3.93;88.58
71966;BME280;59836;52.132;5.442;2023-01-23T12:42:17;103874.78;;;3.95;88.28
71966;BME280;59836;52.132;5.442;2023-01-23T12:44:57;103875.75;;;3.94;88.60
71966;BME280;59836;52.132;5.442;2023-01-23T12:47:31;103881.84;;;3.96;87.89
71966;BME280;59836;52.132;5.442;2023-01-23T12:50:13;103879.00;;;3.97;88.16
71966;BME280;59836;52.132;5.442;2023-01-23T12:52:45;103883.22;;;4.00;87.93
71966;BME280;59836;52.132;5.442;2023-01-23T12:55:23;103887.59;;;4.01;87.65
71966;BME280;59836;52.132;5.442;2023-01-23T12:57:55;103889.28;;;4.02;88.13
71966;BME280;59836;52.132;5.442;2023-01-23T13:00:42;103894.66;;;4.02;87.77
71966;BME280;59836;52.132;5.442;2023-01-23T13:06:29;103892.84;;;4.03;87.54
71966;BME280;59836;52.132;5.442;2023-01-23T13:09:28;103888.28;;;4.03;87.72
71966;BME280;59836;52.132;5.442;2023-01-23T13:12:09;103880.94;;;4.05;87.81
71966;BME280;59836;52.132;5.442;2023-01-23T13:14:45;103884.31;;;4.07;87.95
71966;BME280;59836;52.132;5.442;2023-01-23T13:17:46;103886.31;;;4.05;87.38
71966;BME280;59836;52.132;5.442;2023-01-23T13:20:27;103880.09;;;4.05;87.52
71966;BME280;59836;52.132;5.442;2023-01-23T13:23:28;103887.31;;;4.04;87.21
71966;BME280;59836;52.132;5.442;2023-01-23T13:28:46;103882.22;;;4.01;86.30
71966;BME280;59836;52.132;5.442;2023-01-23T13:31:40;103892.13;;;4.01;86.87
71966;BME280;59836;52.132;5.442;2023-01-23T13:36:47;103893.97;;;4.00;86.54
71966;BME280;59836;52.132;5.442;2023-01-23T13:48:00;103903.88;;;3.99;86.58
71966;BME280;59836;52.132;5.442;2023-01-23T13:51:20;103905.56;;;4.01;87.14
71966;BME280;59836;52.132;5.442;2023-01-23T13:54:00;103901.19;;;3.99;86.69
71966;BME280;59836;52.132;5.442;2023-01-23T13:57:02;103893.13;;;3.99;87.07
71966;BME280;59836;52.132;5.442;2023-01-23T13:59:46;103890.28;;;4.01;87.32
71966;BME280;59836;52.132;5.442;2023-01-23T14:02:37;103889.59;;;3.99;87.03
71966;BME280;59836;52.132;5.442;2023-01-23T14:05:36;103887.19;;;3.96;87.23
71966;BME280;59836;52.132;5.442;2023-01-23T14:08:23;103885.81;;;3.92;87.03
71966;BME280;59836;52.132;5.442;2023-01-23T14:11:20;103869.69;;;3.92;86.74
71966;BME280;59836;52.132;5.442;2023-01-23T14:14:02;103858.25;;;3.90;86.69
71966;BME280;59836;52.132;5.442;2023-01-23T14:17:11;103845.69;;;3.90;87.02
71966;BME280;59836;52.132;5.442;2023-01-23T14:22:34;103844.00;;;3.89;86.95
71966;BME280;59836;52.132;5.442;2023-01-23T14:25:00;103829.88;;;3.87;86.77
71966;BME280;59836;52.132;5.442;2023-01-23T14:27:30;103835.25;;;3.87;86.44
71966;BME280;59836;52.132;5.442;2023-01-23T14:30:17;103831.56;;;3.88;86.80
71966;BME280;59836;52.132;5.442;2023-01-23T14:32:45;103840.47;;;3.89;86.72
71966;BME280;59836;52.132;5.442;2023-01-23T14:35:22;103836.09;;;3.88;86.78
71966;BME280;59836;52.132;5.442;2023-01-23T14:37:51;103828.31;;;3.84;86.08
71966;BME280;59836;52.132;5.442;2023-01-23T14:40:20;103829.63;;;3.80;87.00
71966;BME280;59836;52.132;5.442;2023-01-23T14:43:07;103829.63;;;3.80;86.45
71966;BME280;59836;52.132;5.442;2023-01-23T14:45:35;103835.28;;;3.77;85.85
71966;BME280;59836;52.132;5.442;2023-01-23T14:48:04;103837.16;;;3.77;85.64
71966;BME280;59836;52.132;5.442;2023-01-23T14:50:33;103841.66;;;3.76;85.83
71966;BME280;59836;52.132;5.442;2023-01-23T14:53:06;103844.34;;;3.76;85.75
71966;BME280;59836;52.132;5.442;2023-01-23T14:55:39;103845.19;;;3.77;85.99
71966;BME280;59836;52.132;5.442;2023-01-23T14:58:09;103850.69;;;3.75;85.97